Latest Weather Observations for Cabramurra

IDN60801

Issued at 2:35 am EST Sunday 20 April 2014 (issued every 30 minutes, with the page automatically refreshed every 10 minutes)

About weather observations | Map of weather stations | Latest weather observations for NSW | Other Formats
Station Details ID: 072161 Name: CABRAMURRA SMHEA AWS Lat: -35.94 Lon: 148.38 Height: 1482.4 m
Data from the previous 72 hours. | See also: Recent months at Cabramurra
Date/Time
EST
Temp
°C
App
Temp
°C
Dew
Point
Rel
Hum
%
Delta-T
°C
Wind Press
QNH
hPa
Press
MSL
hPa
Rain
since 9 am
mm
Dir
 
Spd
km/h
Gust
km/h
Spd
kts
Gust
kts
20/02:30am 3.8 0.0 3.7 99 0.0 N 13 19 7 10 - - 0.0
20/02:00am 3.7 -0.2 3.6 99 0.0 N 13 19 7 10 - - 0.0
20/01:30am 3.5 -1.2 3.4 99 0.0 NNE 17 22 9 12 - - 0.0
20/01:00am 3.9 -1.1 3.6 98 0.1 NNE 19 26 10 14 - - 0.0
20/12:30am 3.9 -1.1 3.6 98 0.1 NE 19 24 10 13 - - 0.0
20/12:00am 3.1 -2.2 3.0 99 0.0 NE 20 26 11 14 - - 0.0
 
Date/Time
EST
Temp
°C
App
Temp
°C
Dew
Point
Rel
Hum
%
Delta-T
°C
Wind Press
QNH
hPa
Press
MSL
hPa
Rain
since 9 am
mm
Dir
 
Spd
km/h
Gust
km/h
Spd
kts
Gust
kts
19/11:30pm 2.6 -3.2 2.5 99 0.0 ENE 22 26 12 14 - - 0.0
19/11:00pm 2.6 -2.8 2.5 99 0.0 ENE 20 24 11 13 - - 0.0
19/10:30pm 2.8 -2.6 2.4 97 0.2 ENE 20 24 11 13 - - 0.0
19/10:00pm 2.7 -1.4 2.0 95 0.3 E 13 17 7 9 - - 0.0
19/09:30pm 3.2 -1.6 2.5 95 0.3 E 17 24 9 13 - - 0.0
19/09:00pm 3.1 0.3 2.2 94 0.4 NE 6 15 3 8 - - 0.0
19/08:30pm 3.6 -0.5 2.3 91 0.6 E 13 20 7 11 - - 0.0
19/08:00pm 3.9 1.8 1.4 84 1.1 SSE 2 7 1 4 - - 0.0
19/07:30pm 4.3 0.9 2.0 85 1.0 SE 9 15 5 8 - - 0.0
19/07:00pm 4.2 0.8 1.9 85 1.0 SE 9 13 5 7 - - 0.0
19/06:30pm 4.1 2.3 1.5 83 1.1 CALM 0 0 0 0 - - 0.0
19/06:00pm 4.1 1.2 1.5 83 1.1 WNW 6 6 3 3 - - 0.0
19/05:30pm 5.2 2.1 1.1 75 1.8 WNW 7 11 4 6 - - 0.0
19/05:00pm 6.3 2.8 1.0 69 2.3 W 9 15 5 8 - - 0.0
19/04:30pm 7.1 3.2 1.0 65 2.7 W 11 15 6 8 - - 0.0
19/04:00pm 7.1 2.8 0.8 64 2.8 WNW 13 17 7 9 - - 0.0
19/03:30pm 7.6 3.6 0.6 61 3.1 W 11 15 6 8 - - 0.0
19/03:00pm 7.5 2.7 0.3 60 3.1 WNW 15 20 8 11 - - 0.0
19/02:30pm 7.9 3.5 0.4 59 3.3 W 13 19 7 10 - - 0.0
19/02:00pm 8.2 4.1 2.0 65 2.8 W 13 20 7 11 - - 0.0
19/01:30pm 8.1 3.6 1.9 65 2.8 WNW 15 20 8 11 - - 0.0
19/01:00pm 7.4 2.7 0.8 63 2.9 WNW 15 20 8 11 - - 0.0
19/12:30pm 7.7 3.7 3.0 72 2.2 WNW 13 19 7 10 - - 0.0
19/12:00pm 7.5 4.0 3.4 75 1.9 WNW 11 19 6 10 - - 0.0
19/11:30am 7.0 3.1 1.3 67 2.5 NW 11 17 6 9 - - 0.0
19/11:00am 6.8 3.6 3.1 77 1.7 NNW 9 13 5 7 - - 0.0
19/10:30am 5.6 2.0 2.8 82 1.3 NNW 11 15 6 8 - - 0.0
19/10:00am 5.0 2.0 1.1 76 1.7 WNW 6 7 3 4 - - 0.0
19/09:30am 4.3 1.4 1.5 82 1.2 NW 6 7 3 4 - - 0.0
19/09:00am 3.9 1.5 2.1 88 0.8 SSE 4 9 2 5 - - 1.6
19/08:30am 3.2 0.1 1.3 87 0.8 E 7 9 4 5 - - 1.6
19/08:00am 2.2 -0.9 1.3 94 0.4 E 7 9 4 5 - - 1.6
19/07:30am 1.1 -2.4 1.0 99 0.0 E 9 13 5 7 - - 1.6
19/07:00am 0.4 -3.2 0.3 99 0.0 ESE 9 13 5 7 - - 1.6
19/06:30am 0.2 -4.2 0.1 99 0.0 ESE 13 15 7 8 - - 1.6
19/06:00am 0.9 -3.1 0.8 99 0.0 E 11 15 6 8 - - 1.6
19/05:30am 0.6 -2.4 0.5 99 0.0 SE 6 11 3 6 - - 1.6
19/05:00am 1.2 -0.6 1.1 99 0.0 CALM 0 6 0 3 - - 1.6
19/04:30am 2.1 0.4 2.0 99 0.0 CALM 0 0 0 0 - - 1.6
19/04:00am 2.7 1.1 2.6 99 0.0 CALM 0 0 0 0 - - 1.6
19/03:30am 3.0 1.5 2.9 99 0.0 CALM 0 0 0 0 - - 1.6
19/03:00am 3.1 0.3 3.0 99 0.0 SSW 7 11 4 6 - - 1.6
19/02:30am 3.5 0.8 2.9 96 0.3 SSW 6 7 3 4 - - 1.6
19/02:00am 4.0 1.2 3.1 94 0.4 SSW 7 11 4 6 - - 1.6
19/01:30am 4.2 1.2 4.1 99 0.0 S 9 13 5 7 - - 1.6
19/01:00am 5.1 2.6 5.0 99 0.0 W 7 11 4 6 - - 1.6
19/12:30am 5.3 2.9 5.2 99 0.0 W 7 13 4 7 - - 1.6
19/12:00am 5.2 2.3 4.8 97 0.2 WNW 9 15 5 8 - - 1.6
 
Date/Time
EST
Temp
°C
App
Temp
°C
Dew
Point
Rel
Hum
%
Delta-T
°C
Wind Press
QNH
hPa
Press
MSL
hPa
Rain
since 9 am
mm
Dir
 
Spd
km/h
Gust
km/h
Spd
kts
Gust
kts
18/11:30pm 5.5 1.1 4.8 95 0.3 WSW 17 22 9 12 - - 1.6
18/11:00pm 5.7 2.2 5.3 97 0.2 WSW 13 26 7 14 - - 1.6
18/10:30pm 5.8 1.6 5.7 99 0.0 WSW 17 32 9 17 - - 1.6
18/10:00pm 6.0 2.2 5.9 99 0.0 W 15 24 8 13 - - 1.6
18/09:30pm 6.2 0.7 6.1 99 0.0 WSW 24 41 13 22 - - 1.6
18/09:00pm 6.4 1.0 6.3 99 0.0 WSW 24 35 13 19 - - 1.6
18/08:30pm 6.7 1.4 6.6 99 0.0 WSW 24 44 13 24 - - 1.6
18/08:05pm 6.8 0.7 6.7 99 0.1 WSW 28 46 15 25 - - 1.6
18/08:00pm 6.9 1.2 6.8 99 0.1 WSW 26 43 14 23 - - 1.4
18/07:30pm 7.0 0.6 6.9 99 0.1 WSW 30 43 16 23 - - 0.2
18/07:03pm 7.2 1.2 7.1 99 0.1 W 28 46 15 25 - - 0.0
18/07:00pm 7.2 0.8 7.1 99 0.1 W 30 46 16 25 - - 0.0
18/06:57pm 7.3 1.3 7.2 99 0.1 W 28 46 15 25 - - 0.0
18/06:30pm 7.4 2.6 7.3 99 0.1 W 22 41 12 22 - - 0.0
18/06:00pm 7.5 2.3 7.2 98 0.2 W 24 37 13 20 - - 0.0
18/05:30pm 7.6 2.3 7.0 96 0.3 W 24 43 13 23 - - 0.0
18/05:00pm 7.6 2.7 7.0 96 0.3 W 22 32 12 17 - - 0.0
18/04:30pm 7.6 2.7 6.7 94 0.5 W 22 35 12 19 - - 0.0
18/04:00pm 7.8 2.9 6.7 93 0.6 W 22 43 12 23 - - 0.0
18/03:30pm 8.2 2.9 6.8 91 0.7 W 24 35 13 19 - - 0.0
18/03:00pm 8.4 3.1 6.9 90 0.8 W 24 41 13 22 - - 0.0
18/02:30pm 7.5 1.1 6.8 95 0.4 W 30 46 16 25 - - 0.0
18/02:08pm 7.7 1.3 6.8 94 0.5 W 30 50 16 27 - - 0.0
18/02:00pm 7.9 0.9 6.8 93 0.6 W 33 48 18 26 - - 0.0
18/01:37pm 7.7 1.8 7.3 97 0.2 W 28 54 15 29 - - 0.0
18/01:30pm 7.6 1.6 7.0 96 0.3 W 28 39 15 21 - - 0.0
18/01:08pm 8.6 1.7 7.4 92 0.6 W 33 52 18 28 - - 0.0
18/01:00pm 7.9 0.6 7.1 95 0.4 W 35 50 19 27 - - 0.0
18/12:37pm 7.9 2.0 7.6 98 0.2 W 28 48 15 26 - - 0.0
18/12:30pm 7.5 2.0 7.4 99 0.1 W 26 39 14 21 - - 0.0
18/12:00pm 7.1 1.8 7.0 99 0.1 W 24 39 13 21 - - 0.0
18/11:30am 8.0 2.2 7.9 99 0.1 W 28 39 15 21 - - 0.0
18/11:00am 6.9 1.6 6.8 99 0.1 W 24 37 13 20 - - 0.0
18/10:30am 7.0 1.7 6.9 99 0.1 W 24 39 13 21 - - 0.0
18/10:00am 6.9 1.6 6.8 99 0.1 W 24 35 13 19 - - 0.0
18/09:30am 7.5 3.1 6.4 93 0.5 WSW 19 28 10 15 - - 0.0
18/09:00am 7.6 3.5 6.2 91 0.7 W 17 28 9 15 - - 0.0
18/08:30am 7.7 2.9 5.8 88 0.9 WSW 20 32 11 17 - - 0.0
18/08:00am 7.2 2.6 5.8 91 0.7 WSW 19 28 10 15 - - 0.0
18/07:30am 6.8 2.3 6.1 95 0.3 WSW 19 26 10 14 - - 0.0
18/07:00am 6.0 1.8 5.9 99 0.0 WSW 17 24 9 13 - - 0.0
18/06:30am 5.8 1.2 5.7 99 0.0 WSW 19 28 10 15 - - 0.0
18/06:00am 5.9 1.7 5.8 99 0.0 W 17 20 9 11 - - 0.0
18/05:30am 5.8 2.3 5.5 98 0.1 WSW 13 15 7 8 - - 0.0
18/05:00am 6.0 2.2 5.7 98 0.1 SW 15 19 8 10 - - 0.0
18/04:30am 5.6 2.0 5.0 96 0.3 SW 13 15 7 8 - - 0.0
18/04:00am 5.9 2.1 5.8 99 0.0 SSW 15 19 8 10 - - 0.0
18/03:30am 5.8 2.4 5.7 99 0.0 SSW 13 17 7 9 - - 0.0
18/03:00am 6.6 2.6 6.5 99 0.0 SW 17 20 9 11 - - 0.0
18/02:30am 6.0 2.5 5.6 97 0.2 WSW 13 15 7 8 - - 0.0
18/02:00am 6.1 2.5 5.2 94 0.4 WSW 13 17 7 9 - - 0.0
18/01:30am 6.2 3.3 4.8 91 0.7 SSW 9 9 5 5 - - 0.0
18/01:00am 6.5 4.1 5.1 91 0.7 SSW 7 9 4 5 - - 0.0
18/12:30am 6.5 3.7 5.0 90 0.7 SSW 9 11 5 6 - - 0.0
18/12:00am 6.4 2.8 5.2 92 0.6 S 13 15 7 8 - - 0.0
 
Date/Time
EST
Temp
°C
App
Temp
°C
Dew
Point
Rel
Hum
%
Delta-T
°C
Wind Press
QNH
hPa
Press
MSL
hPa
Rain
since 9 am
mm
Dir
 
Spd
km/h
Gust
km/h
Spd
kts
Gust
kts
17/11:30pm 6.3 3.2 5.4 94 0.4 S 11 11 6 6 - - 0.0
17/11:00pm 6.4 2.9 5.4 93 0.5 SSW 13 15 7 8 - - 0.0
17/10:30pm 6.6 3.2 5.7 94 0.4 SW 13 17 7 9 - - 0.0
17/10:00pm 6.4 2.9 5.5 94 0.4 SW 13 17 7 9 - - 0.0
17/09:30pm 6.7 3.5 5.0 89 0.8 SW 11 15 6 8 - - 0.0
17/09:00pm 6.8 3.4 3.8 81 1.4 S 11 13 6 7 - - 0.0
17/08:30pm 7.1 4.0 3.5 78 1.7 S 9 11 5 6 - - 0.0
17/08:00pm 7.1 4.3 3.3 77 1.8 SSW 7 9 4 5 - - 0.0
17/07:30pm 7.8 6.1 4.2 78 1.7 S 2 6 1 3 - - 0.0
17/07:00pm 7.5 5.5 4.5 81 1.4 WSW 4 6 2 3 - - 0.0
17/06:30pm 8.1 5.4 3.8 74 2.0 SSW 7 9 4 5 - - 0.0
17/06:00pm 8.2 6.9 4.0 75 2.0 CALM 0 0 0 0 - - 0.0
17/05:30pm 9.4 6.8 4.4 71 2.4 W 7 9 4 5 - - 0.0
17/05:00pm 10.2 7.4 5.2 71 2.5 W 9 13 5 7 - - 0.0
17/04:30pm 10.7 7.3 6.1 73 2.3 W 13 19 7 10 - - 0.0
17/04:00pm 11.5 8.2 6.2 70 2.7 W 13 17 7 9 - - 0.0
17/03:30pm 12.0 8.7 6.5 69 2.8 W 13 20 7 11 - - 0.0
17/03:00pm 11.6 7.7 5.5 66 3.1 W 15 20 8 11 - - 0.0
17/02:30pm 11.6 7.6 5.0 64 3.3 W 15 22 8 12 - - 0.0
17/02:00pm 11.5 7.1 4.9 64 3.3 WNW 17 22 9 12 - - 0.0
17/01:30pm 12.1 8.8 6.4 68 2.9 W 13 20 7 11 - - 0.0
17/01:00pm 11.5 8.4 5.4 66 3.1 WNW 11 19 6 10 - - 0.0
17/12:30pm 11.0 7.4 4.9 66 3.0 W 13 22 7 12 - - 0.0
17/12:00pm 11.2 7.4 4.0 61 3.5 W 13 19 7 10 - - 0.0
17/11:30am 11.0 7.6 4.2 63 3.3 NW 11 17 6 9 - - 0.0
17/11:00am 10.5 7.1 4.2 65 3.1 WNW 11 15 6 8 - - 0.0
17/10:30am 10.0 7.5 5.0 71 2.5 WNW 7 11 4 6 - - 0.0
17/10:00am 9.6 7.3 4.6 71 2.4 SSW 6 11 3 6 - - 0.0
17/09:30am 8.8 6.0 3.2 68 2.6 S 7 9 4 5 - - 0.0
17/09:00am 8.5 6.2 2.5 66 2.8 SSW 4 9 2 5 - - 0.0
17/08:30am 8.3 6.0 2.5 67 2.7 SE 4 11 2 6 - - 0.0
17/08:00am 7.6 5.4 3.3 74 2.0 S 4 11 2 6 - - 0.0
17/07:30am 6.7 3.9 3.0 77 1.7 E 7 11 4 6 - - 0.0
17/07:00am 5.8 1.6 1.5 74 1.9 E 13 15 7 8 - - 0.0
17/06:30am 5.5 1.3 1.4 75 1.8 E 13 15 7 8 - - 0.0
17/06:00am 5.8 1.6 1.7 75 1.8 E 13 17 7 9 - - 0.0
17/05:30am 5.7 2.3 1.8 76 1.7 E 9 13 5 7 - - 0.0
17/05:00am 6.5 3.4 1.4 70 2.3 SSE 7 11 4 6 - - 0.0
17/04:30am 6.2 3.2 1.9 74 1.9 SSE 7 9 4 5 - - 0.0
17/04:00am 6.3 3.3 2.2 75 1.8 SE 7 9 4 5 - - 0.0
17/03:30am 6.4 3.6 2.9 78 1.6 SE 7 9 4 5 - - 0.0
17/03:00am 6.1 3.3 2.9 80 1.5 ESE 7 9 4 5 - - 0.0

Other Formats:

Comma delimited format used in spreadsheet applications
http://www.bom.gov.au/fwo/IDN60801/IDN60801.95916.axf

JavaScript Object Notation format (JSON) in row-major order
http://www.bom.gov.au/fwo/IDN60801/IDN60801.95916.json